Time;durP1;ratioP1;P1;durP2;ratioP2;P2;SDS_P1;SDS_P2;PMS_P1;PMS_P2;Temp;Humidity;BMP_temperature;BMP_pressure;BME280_temperature;BME280_humidity;BME280_pressure;Samples;Min_cycle;Max_cycle;Signal;HPM_P1;HPM_P2
2021/05/25 08:04:52;;;;;;;0.30;0.10;;;10.50;69.90;;;;;;4546640;24;20272;-86
2021/05/25 08:07:22;;;;;;;2.75;0.40;;;10.60;70.00;;;;;;4801879;29;20062;-85
2021/05/25 08:09:53;;;;;;;0.73;0.20;;;10.70;69.90;;;;;;4788479;29;20062;-86
2021/05/25 08:12:21;;;;;;;3.13;0.32;;;10.90;68.80;;;;;;4786637;29;20054;-85
2021/05/25 08:14:50;;;;;;;1.85;0.30;;;10.80;68.80;;;;;;4801343;29;20058;-85
2021/05/25 08:17:21;;;;;;;2.20;0.30;;;10.60;69.40;;;;;;4798741;29;20112;-87
2021/05/25 08:19:49;;;;;;;1.75;0.20;;;10.70;69.80;;;;;;4803226;29;20393;-85
2021/05/25 08:22:17;;;;;;;0.28;0.17;;;10.60;69.70;;;;;;4769827;29;20211;-85
2021/05/25 08:24:45;;;;;;;1.48;0.10;;;10.50;70.40;;;;;;4802682;29;20062;-85
2021/05/25 08:27:13;;;;;;;1.42;0.20;;;10.40;71.60;;;;;;4802388;29;20383;-85
2021/05/25 08:29:40;;;;;;;0.90;0.30;;;10.40;71.90;;;;;;4786330;29;20066;-85
2021/05/25 08:32:11;;;;;;;1.50;0.38;;;10.30;71.60;;;;;;4797930;29;20051;-84
2021/05/25 08:34:38;;;;;;;0.93;0.15;;;10.40;72.60;;;;;;4805875;29;20073;-86
2021/05/25 08:37:09;;;;;;;2.10;0.40;;;10.30;72.70;;;;;;4805430;29;20389;-86
2021/05/25 08:39:36;;;;;;;0.10;0.10;;;10.20;73.20;;;;;;4787591;29;20237;-85
2021/05/25 08:42:04;;;;;;;0.70;0.30;;;10.20;75.00;;;;;;4803471;29;20080;-86
2021/05/25 08:44:31;;;;;;;1.17;0.15;;;10.10;75.50;;;;;;4805049;29;20058;-85
2021/05/25 08:47:03;;;;;;;3.42;0.43;;;10.10;76.10;;;;;;4805628;29;20043;-86
2021/05/25 08:49:30;;;;;;;0.20;0.10;;;10.10;76.60;;;;;;4796751;29;20047;-85
2021/05/25 08:52:00;;;;;;;0.50;0.15;;;10.00;76.10;;;;;;4803197;29;20059;-88
2021/05/25 08:54:32;;;;;;;1.15;0.17;;;10.10;76.30;;;;;;4782207;29;20130;-85
2021/05/25 08:57:00;;;;;;;1.60;0.20;;;10.00;77.00;;;;;;4782686;29;20055;-87
2021/05/25 08:59:31;;;;;;;0.15;0.15;;;9.90;79.80;;;;;;4803602;29;20047;-87
2021/05/25 09:01:59;;;;;;;0.50;0.10;;;9.70;80.60;;;;;;4799414;29;20062;-84
2021/05/25 09:04:57;;;;;;;0.17;0.10;;;9.80;79.80;;;;;;2973888;29;10001823;-88
2021/05/25 09:07:40;;;;;;;0.17;0.10;;;9.70;80.40;;;;;;3482076;29;10002159;-86
2021/05/25 09:10:10;;;;;;;0.10;0.10;;;9.50;81.40;;;;;;4798582;29;20055;-86
2021/05/25 09:12:39;;;;;;;0.70;0.13;;;9.50;82.10;;;;;;4799525;29;20063;-84
2021/05/25 09:15:09;;;;;;;0.45;0.20;;;9.50;82.30;;;;;;4794414;29;20050;-84
2021/05/25 09:17:36;;;;;;;0.50;0.20;;;9.20;86.60;;;;;;4801936;29;20070;-84
2021/05/25 09:20:06;;;;;;;0.30;0.17;;;9.30;87.40;;;;;;4801690;29;20070;-84
2021/05/25 09:22:35;;;;;;;2.28;0.38;;;9.40;85.30;;;;;;4795733;29;20104;-84
2021/05/25 09:25:15;;;;;;;1.20;0.30;;;9.40;84.80;;;;;;4811283;29;20063;-85
2021/05/25 09:27:47;;;;;;;1.00;0.30;;;9.40;82.90;;;;;;4797790;29;20188;-88
2021/05/25 09:30:23;;;;;;;1.40;0.35;;;9.60;84.70;;;;;;4799411;29;20066;-85
2021/05/25 09:32:53;;;;;;;1.35;0.20;;;9.70;82.10;;;;;;4816849;29;20593;-85
2021/05/25 09:35:22;;;;;;;2.53;0.30;;;9.70;82.50;;;;;;4784110;29;20047;-86
2021/05/25 09:37:52;;;;;;;0.82;0.60;;;9.70;82.40;;;;;;4802188;29;20067;-86
2021/05/25 09:40:25;;;;;;;0.70;0.10;;;9.70;81.60;;;;;;4788543;29;20070;-85
2021/05/25 09:42:56;;;;;;;0.60;0.20;;;9.90;81.80;;;;;;4814263;29;20325;-86
2021/05/25 09:45:23;;;;;;;1.38;0.30;;;10.00;79.70;;;;;;4790307;29;20063;-84
2021/05/25 09:47:53;;;;;;;3.30;0.40;;;10.00;78.60;;;;;;4809721;29;20066;-85
2021/05/25 09:50:23;;;;;;;0.73;0.22;;;10.20;78.60;;;;;;4801075;29;20062;-87
2021/05/25 09:53:11;;;;;;;1.75;0.60;;;10.40;78.30;;;;;;4799748;29;20177;-85
2021/05/25 09:55:57;;;;;;;0.15;0.10;;;10.80;77.50;;;;;;4786135;29;20083;-85
2021/05/25 09:58:40;;;;;;;0.63;0.22;;;10.90;75.00;;;;;;4802191;29;20531;-85
2021/05/25 10:01:08;;;;;;;0.40;0.10;;;11.20;75.90;;;;;;4810475;29;20099;-85
2021/05/25 10:03:45;;;;;;;0.13;0.13;;;11.20;74.20;;;;;;4802883;29;20049;-85
2021/05/25 10:06:12;;;;;;;0.20;0.20;;;11.40;75.00;;;;;;4794715;29;20063;-84
2021/05/25 10:08:43;;;;;;;0.30;0.10;;;11.40;73.40;;;;;;4803045;29;20059;-85
2021/05/25 10:11:17;;;;;;;0.10;0.10;;;11.40;72.70;;;;;;4798699;29;20058;-86
2021/05/25 10:13:46;;;;;;;0.75;0.20;;;11.40;73.40;;;;;;4802493;29;20057;-85
2021/05/25 10:16:15;;;;;;;0.82;0.10;;;11.40;73.60;;;;;;4811637;29;20079;-85
2021/05/25 10:19:01;;;;;;;1.30;0.15;;;11.00;78.00;;;;;;4800805;29;20099;-85
2021/05/25 10:21:31;;;;;;;0.10;0.10;;;10.50;78.20;;;;;;4785357;29;20063;-84
2021/05/25 10:24:00;;;;;;;0.55;0.10;;;10.30;79.80;;;;;;4800537;29;20063;-87
2021/05/25 10:26:31;;;;;;;1.75;0.20;;;10.10;79.80;;;;;;4801368;29;20233;-84
2021/05/25 10:29:04;;;;;;;2.95;0.20;;;10.20;81.00;;;;;;4791552;29;20059;-85
2021/05/25 10:31:33;;;;;;;0.10;0.10;;;10.40;80.60;;;;;;4794897;29;20090;-85
2021/05/25 10:34:17;;;;;;;0.60;0.20;;;10.30;79.30;;;;;;4813237;29;20140;-86
2021/05/25 10:36:46;;;;;;;1.05;0.82;;;10.30;77.70;;;;;;4813268;29;20063;-86
2021/05/25 10:39:35;;;;;;;0.55;0.20;;;10.40;77.80;;;;;;4811226;29;20063;-87
2021/05/25 10:42:25;;;;;;;0.77;0.17;;;10.40;77.70;;;;;;4813233;29;20055;-84
2021/05/25 10:44:55;;;;;;;0.20;0.20;;;10.50;75.70;;;;;;4819317;29;20104;-86
2021/05/25 10:47:25;;;;;;;0.88;0.25;;;10.60;75.50;;;;;;4812499;29;20313;-86
2021/05/25 10:49:55;;;;;;;0.73;0.20;;;10.70;75.30;;;;;;4804561;29;20334;-85
2021/05/25 10:52:22;;;;;;;0.65;0.20;;;10.60;75.70;;;;;;4804476;29;20350;-84
2021/05/25 10:54:58;;;;;;;0.60;0.22;;;10.60;75.10;;;;;;4821208;29;20062;-85
2021/05/25 10:57:49;;;;;;;0.32;0.20;;;10.60;76.20;;;;;;4811799;29;20186;-85
2021/05/25 11:00:21;;;;;;;0.13;0.10;;;10.80;75.10;;;;;;4813251;29;20464;-85
2021/05/25 11:02:54;;;;;;;0.57;0.30;;;11.20;73.90;;;;;;4769344;29;20067;-85
2021/05/25 11:05:47;;;;;;;1.58;0.55;;;11.10;73.40;;;;;;4810723;29;20062;-84
2021/05/25 11:08:33;;;;;;;0.52;0.52;;;10.90;74.20;;;;;;4798578;29;20249;-84
2021/05/25 11:11:10;;;;;;;0.28;0.10;;;10.70;75.40;;;;;;4796210;29;20055;-85
2021/05/25 11:13:39;;;;;;;0.43;0.20;;;10.50;77.20;;;;;;4795602;29;20130;-86
2021/05/25 11:16:11;;;;;;;0.10;0.10;;;10.50;77.60;;;;;;4801546;29;20134;-87
2021/05/25 11:18:42;;;;;;;0.60;0.28;;;10.70;76.40;;;;;;4793007;29;20071;-84
2021/05/25 11:21:46;;;;;;;0.85;0.20;;;10.80;75.60;;;;;;4796274;29;20067;-83
2021/05/25 11:24:29;;;;;;;0.20;0.20;;;10.80;75.20;;;;;;4796455;29;20389;-83
2021/05/25 11:27:03;;;;;;;0.75;0.30;;;10.90;75.50;;;;;;4773203;29;20046;-84
2021/05/25 11:29:34;;;;;;;1.50;0.32;;;11.10;74.40;;;;;;4804729;29;22511;-83
2021/05/25 11:32:11;;;;;;;0.55;0.22;;;11.20;74.40;;;;;;4794967;29;20055;-84
2021/05/25 11:34:41;;;;;;;1.77;0.32;;;11.30;73.80;;;;;;4799576;29;20122;-84
2021/05/25 11:37:11;;;;;;;0.38;0.20;;;11.40;73.30;;;;;;4801105;29;20065;-87
2021/05/25 11:39:38;;;;;;;0.20;0.20;;;11.50;73.70;;;;;;4798695;29;20058;-85
2021/05/25 11:42:07;;;;;;;0.10;0.10;;;11.40;76.20;;;;;;4799437;29;20110;-85
2021/05/25 11:44:45;;;;;;;0.93;0.32;;;11.20;75.80;;;;;;4802929;29;20107;-84
2021/05/25 11:47:16;;;;;;;0.47;0.20;;;11.10;77.40;;;;;;4801578;29;20074;-86
2021/05/25 11:49:44;;;;;;;2.55;0.20;;;11.20;76.20;;;;;;4809664;29;20055;-84
2021/05/25 11:52:23;;;;;;;0.63;0.30;;;11.10;77.90;;;;;;4799386;29;20059;-84
2021/05/25 11:54:52;;;;;;;0.32;0.13;;;11.40;77.10;;;;;;4800177;29;20078;-87
2021/05/25 11:57:31;;;;;;;1.35;0.50;;;11.60;75.40;;;;;;4796666;29;20073;-84
2021/05/25 12:00:01;;;;;;;0.30;0.20;;;12.30;75.00;;;;;;4809774;29;20067;-85
2021/05/25 12:02:34;;;;;;;0.40;0.40;;;12.40;73.10;;;;;;4797673;29;20062;-85
2021/05/25 12:05:11;;;;;;;1.17;0.57;;;12.90;72.60;;;;;;4796975;29;20066;-86
2021/05/25 12:07:39;;;;;;;1.90;0.75;;;13.80;68.40;;;;;;4791914;29;20055;-83
2021/05/25 12:10:10;;;;;;;3.35;0.60;;;16.20;60.90;;;;;;4809040;29;20043;-84
2021/05/25 12:12:40;;;;;;;4.35;0.73;;;17.20;56.60;;;;;;4782535;29;20225;-85
2021/05/25 12:15:19;;;;;;;3.15;0.70;;;18.10;54.70;;;;;;4803730;29;20055;-83
2021/05/25 12:17:50;;;;;;;1.23;0.32;;;17.50;57.30;;;;;;4811789;29;20163;-84
2021/05/25 12:20:19;;;;;;;1.55;0.40;;;17.70;54.90;;;;;;4800114;29;20055;-85
2021/05/25 12:22:49;;;;;;;0.88;0.32;;;19.00;50.20;;;;;;4798038;29;20108;-85
2021/05/25 12:25:25;;;;;;;4.28;0.40;;;16.40;56.60;;;;;;4789669;29;20118;-83
2021/05/25 12:27:54;;;;;;;1.88;0.40;;;15.40;59.80;;;;;;4773119;29;20060;-82
2021/05/25 12:30:23;;;;;;;1.00;0.40;;;15.20;60.80;;;;;;4812285;29;20143;-83
2021/05/25 12:32:51;;;;;;;0.52;0.30;;;14.10;62.40;;;;;;4799490;29;20052;-85
2021/05/25 12:35:23;;;;;;;0.30;0.20;;;14.40;63.20;;;;;;4812106;29;20054;-81
2021/05/25 12:38:11;;;;;;;1.08;0.20;;;13.80;62.00;;;;;;4795103;29;20051;-82
2021/05/25 12:40:40;;;;;;;0.30;0.20;;;14.30;61.10;;;;;;4805308;29;20385;-83
2021/05/25 12:43:26;;;;;;;1.97;0.40;;;16.60;54.20;;;;;;4797731;29;20059;-82
2021/05/25 12:46:05;;;;;;;0.90;0.30;;;17.00;53.10;;;;;;4801939;29;20327;-82
2021/05/25 12:48:37;;;;;;;2.63;0.50;;;17.50;50.40;;;;;;4809278;29;20133;-85
2021/05/25 12:51:07;;;;;;;0.70;0.40;;;17.40;50.70;;;;;;4798080;29;20077;-82
2021/05/25 12:53:59;;;;;;;1.13;0.75;;;19.30;46.00;;;;;;4815588;29;20043;-83
2021/05/25 12:56:27;;;;;;;2.08;0.20;;;18.80;45.60;;;;;;4799404;29;20083;-83
2021/05/25 12:58:55;;;;;;;1.17;0.20;;;15.70;54.20;;;;;;4790285;29;20059;-85
2021/05/25 13:01:31;;;;;;;0.75;0.20;;;14.90;56.90;;;;;;4809465;29;20253;-83
2021/05/25 13:04:25;;;;;;;1.38;0.20;;;13.80;60.50;;;;;;4786766;29;20311;-83
2021/05/25 13:06:56;;;;;;;0.45;0.30;;;13.40;62.20;;;;;;4777583;29;20103;-84
2021/05/25 13:09:34;;;;;;;1.23;0.28;;;13.40;62.50;;;;;;4795859;29;20333;-84
2021/05/25 13:12:05;;;;;;;0.30;0.20;;;13.30;63.70;;;;;;4807380;29;20070;-85
2021/05/25 13:14:36;;;;;;;0.40;0.20;;;13.30;63.30;;;;;;4796721;29;20049;-85
2021/05/25 13:17:09;;;;;;;0.30;0.20;;;13.40;63.90;;;;;;4801933;29;20073;-84
2021/05/25 13:19:42;;;;;;;1.98;0.80;;;13.70;61.50;;;;;;4802644;29;20057;-84
2021/05/25 13:22:12;;;;;;;0.25;0.20;;;13.40;63.20;;;;;;4797982;29;20067;-83
2021/05/25 13:24:53;;;;;;;0.68;0.25;;;13.10;64.20;;;;;;4796291;29;20115;-83
2021/05/25 13:27:22;;;;;;;1.05;0.35;;;12.90;63.80;;;;;;4799920;29;20077;-84
2021/05/25 13:29:58;;;;;;;0.63;0.20;;;12.90;64.00;;;;;;4797554;29;20070;-82
2021/05/25 13:32:25;;;;;;;0.25;0.20;;;12.90;65.60;;;;;;4807185;29;20039;-83
2021/05/25 13:34:54;;;;;;;0.47;0.38;;;13.00;65.80;;;;;;4796078;29;20055;-81
2021/05/25 13:37:25;;;;;;;1.55;0.57;;;13.40;64.50;;;;;;4793241;29;20055;-83
2021/05/25 13:39:57;;;;;;;1.73;0.40;;;14.80;59.20;;;;;;4801613;29;20138;-83
2021/05/25 13:42:28;;;;;;;1.70;0.30;;;15.90;55.90;;;;;;4817204;29;20133;-86
2021/05/25 13:44:55;;;;;;;1.45;0.55;;;17.60;51.80;;;;;;4814438;29;20050;-84
2021/05/25 13:47:22;;;;;;;0.85;0.40;;;19.20;46.10;;;;;;4803642;29;20118;-83
2021/05/25 13:49:50;;;;;;;0.55;0.30;;;19.20;45.60;;;;;;4786409;29;20115;-83
2021/05/25 13:52:28;;;;;;;3.08;0.30;;;19.10;46.70;;;;;;4806521;29;20058;-84
2021/05/25 13:54:56;;;;;;;0.55;0.30;;;20.20;43.50;;;;;;4800367;29;20051;-83
2021/05/25 13:57:24;;;;;;;0.45;0.20;;;20.80;42.10;;;;;;4799574;29;20422;-84
2021/05/25 14:00:07;;;;;;;2.17;0.20;;;20.10;43.10;;;;;;4787623;29;20072;-84
2021/05/25 14:02:34;;;;;;;1.25;0.30;;;18.70;44.80;;;;;;4805676;29;20059;-83
2021/05/25 14:05:03;;;;;;;2.15;0.30;;;18.30;45.10;;;;;;4806279;29;20350;-85
2021/05/25 14:07:39;;;;;;;2.65;0.40;;;18.80;45.80;;;;;;4787154;29;20057;-85
2021/05/25 14:10:10;;;;;;;2.88;0.60;;;18.70;44.40;;;;;;4801763;29;20120;-85
2021/05/25 14:12:39;;;;;;;2.33;0.40;;;19.50;43.70;;;;;;4801268;29;20089;-86
2021/05/25 14:15:10;;;;;;;2.53;0.40;;;19.40;43.00;;;;;;4801732;29;20047;-85
2021/05/25 14:17:37;;;;;;;0.57;0.20;;;21.20;40.60;;;;;;4806758;29;20058;-84
2021/05/25 14:20:05;;;;;;;2.42;0.30;;;19.10;43.40;;;;;;4802819;29;20277;-84
2021/05/25 14:22:33;;;;;;;3.72;0.50;;;17.60;47.10;;;;;;4801001;29;20384;-83
2021/05/25 14:25:00;;;;;;;0.38;0.20;;;16.60;50.00;;;;;;4804923;29;20038;-85
2021/05/25 14:27:35;;;;;;;1.90;0.50;;;16.00;52.20;;;;;;4781950;29;20128;-82
2021/05/25 14:30:02;;;;;;;2.15;0.60;;;15.60;53.70;;;;;;4796033;29;20091;-86
2021/05/25 14:32:30;;;;;;;2.90;0.63;;;15.00;56.50;;;;;;4796017;29;20084;-85
2021/05/25 14:34:57;;;;;;;1.67;0.32;;;12.70;78.60;;;;;;4801037;29;20047;-83
2021/05/25 14:37:26;;;;;;;0.60;0.30;;;10.90;89.00;;;;;;4797319;29;20055;-83
2021/05/25 14:39:55;;;;;;;0.73;0.22;;;10.60;90.80;;;;;;4796905;29;20126;-83
2021/05/25 14:42:23;;;;;;;1.05;0.50;;;10.60;92.90;;;;;;4794885;29;20069;-83
2021/05/25 14:44:50;;;;;;;1.50;0.40;;;11.30;92.60;;;;;;4782730;29;20080;-83
2021/05/25 14:47:21;;;;;;;2.75;0.63;;;11.60;92.20;;;;;;4794993;29;20074;-83
2021/05/25 14:49:59;;;;;;;3.60;0.80;;;11.70;92.40;;;;;;4800283;29;20245;-85
2021/05/25 14:52:32;;;;;;;1.85;0.82;;;11.70;92.60;;;;;;4800302;29;20064;-84
2021/05/25 14:55:03;;;;;;;2.45;0.70;;;11.40;91.60;;;;;;4796669;29;20077;-83
2021/05/25 14:57:30;;;;;;;4.25;0.82;;;11.50;92.20;;;;;;4796131;29;20173;-83
2021/05/25 15:00:03;;;;;;;2.30;0.40;;;11.70;93.00;;;;;;4798656;29;20059;-83
2021/05/25 15:02:35;;;;;;;1.42;0.77;;;11.70;92.60;;;;;;4789717;29;20094;-84
2021/05/25 15:05:10;;;;;;;4.45;0.47;;;12.20;92.50;;;;;;4796655;29;20063;-83
2021/05/25 15:07:37;;;;;;;2.25;1.00;;;12.20;90.40;;;;;;4781999;29;20070;-84
2021/05/25 15:10:08;;;;;;;4.93;0.90;;;12.40;90.70;;;;;;4798384;29;20115;-82
2021/05/25 15:12:35;;;;;;;3.45;0.75;;;12.20;89.30;;;;;;4791233;29;20396;-83
2021/05/25 15:15:08;;;;;;;8.73;0.60;;;12.30;87.80;;;;;;4800444;29;20062;-85
2021/05/25 15:17:35;;;;;;;2.05;0.40;;;12.30;86.50;;;;;;4800439;29;20070;-84
2021/05/25 15:20:09;;;;;;;2.08;0.60;;;12.40;86.20;;;;;;4800704;29;20062;-84
2021/05/25 15:22:40;;;;;;;1.85;0.40;;;12.70;84.70;;;;;;4799284;29;20063;-84
2021/05/25 15:25:11;;;;;;;0.95;0.40;;;12.70;85.70;;;;;;4797004;29;20063;-84
2021/05/25 15:27:40;;;;;;;1.02;0.32;;;12.70;80.80;;;;;;4783637;29;20055;-82
2021/05/25 15:30:09;;;;;;;1.20;0.40;;;12.90;78.60;;;;;;4800985;29;20078;-83
2021/05/25 15:32:36;;;;;;;2.00;0.43;;;13.10;78.10;;;;;;4787099;29;20055;-83
2021/05/25 15:35:06;;;;;;;4.45;0.70;;;13.90;76.90;;;;;;4775701;29;20054;-84
2021/05/25 15:37:33;;;;;;;1.57;0.40;;;14.30;76.80;;;;;;4799329;29;20356;-83
2021/05/25 15:40:02;;;;;;;2.70;0.77;;;14.20;71.70;;;;;;4779655;29;20043;-84
2021/05/25 15:42:33;;;;;;;2.42;0.68;;;14.10;73.60;;;;;;4768993;29;20053;-85
2021/05/25 15:45:03;;;;;;;1.83;0.88;;;13.60;74.90;;;;;;4795374;29;20108;-84
2021/05/25 15:47:33;;;;;;;2.38;0.25;;;13.40;72.30;;;;;;4776975;29;20063;-83
2021/05/25 15:50:00;;;;;;;2.72;0.50;;;13.20;74.00;;;;;;4792036;29;20133;-84
2021/05/25 15:52:33;;;;;;;4.43;0.75;;;13.10;76.10;;;;;;4792900;29;20377;-83
2021/05/25 15:55:02;;;;;;;2.95;0.57;;;12.90;74.90;;;;;;4801882;29;20051;-83
2021/05/25 15:57:34;;;;;;;2.10;0.60;;;12.80;77.00;;;;;;4797477;29;20326;-83
2021/05/25 16:00:02;;;;;;;1.65;0.45;;;12.70;76.10;;;;;;4781901;29;20054;-85
2021/05/25 16:02:34;;;;;;;0.55;0.32;;;12.50;77.60;;;;;;4804634;29;20053;-84
2021/05/25 16:05:01;;;;;;;5.82;0.95;;;12.50;75.50;;;;;;4803084;29;20476;-85
2021/05/25 16:07:29;;;;;;;2.88;0.50;;;12.50;77.30;;;;;;4803998;29;20217;-84
2021/05/25 16:09:56;;;;;;;3.55;0.55;;;12.60;78.20;;;;;;4806272;29;20126;-83
2021/05/25 16:12:23;;;;;;;2.50;0.70;;;12.60;78.60;;;;;;4804906;29;20051;-83
2021/05/25 16:15:01;;;;;;;4.30;0.40;;;12.70;79.60;;;;;;4802815;29;20112;-85
2021/05/25 16:17:31;;;;;;;3.55;0.70;;;12.70;79.40;;;;;;4785516;29;20058;-83
2021/05/25 16:20:08;;;;;;;2.95;0.75;;;12.60;79.40;;;;;;4790969;29;20042;-82
2021/05/25 16:22:35;;;;;;;2.15;0.63;;;12.50;77.80;;;;;;4807128;29;20081;-82
2021/05/25 16:25:12;;;;;;;1.67;0.50;;;12.40;79.40;;;;;;4798830;29;20096;-86
2021/05/25 16:27:44;;;;;;;4.88;0.80;;;12.50;79.00;;;;;;4787757;29;20050;-85
2021/05/25 16:30:20;;;;;;;5.68;0.82;;;12.10;83.00;;;;;;4785125;29;20096;-83
2021/05/25 16:32:47;;;;;;;2.15;0.40;;;11.30;84.10;;;;;;4788392;29;20039;-83
2021/05/25 16:35:16;;;;;;;1.60;0.45;;;10.60;87.00;;;;;;4790870;29;20059;-82
2021/05/25 16:37:43;;;;;;;0.65;0.20;;;9.90;87.40;;;;;;4785121;29;20062;-85
2021/05/25 16:40:12;;;;;;;0.60;0.32;;;9.20;91.70;;;;;;4789560;29;20082;-83
2021/05/25 16:42:39;;;;;;;0.80;0.40;;;8.90;92.70;;;;;;4804271;29;20047;-84
2021/05/25 16:45:08;;;;;;;2.03;0.38;;;8.60;93.00;;;;;;4798743;29;20059;-85
2021/05/25 16:47:37;;;;;;;0.98;0.32;;;8.60;94.10;;;;;;4798837;29;20060;-83
2021/05/25 16:50:09;;;;;;;2.28;0.38;;;8.50;94.50;;;;;;4803397;29;20109;-84
2021/05/25 16:52:38;;;;;;;2.28;0.50;;;8.50;94.70;;;;;;4804283;29;20075;-85
2021/05/25 16:55:07;;;;;;;0.95;0.45;;;8.50;95.10;;;;;;4786569;29;20051;-84
2021/05/25 16:57:37;;;;;;;2.47;0.52;;;8.60;95.40;;;;;;4802602;29;20071;-84
2021/05/25 17:00:06;;;;;;;0.73;0.40;;;8.50;95.50;;;;;;4778095;29;20055;-85
2021/05/25 17:02:39;;;;;;;;;;;8.40;95.20;;;;;;4777348;29;20354;-84
2021/05/25 17:05:37;;;;;;;1.40;0.47;;;8.60;95.50;;;;;;4797726;29;19924;-83
2021/05/25 17:19:21;;;;;;;1.73;0.65;;;8.80;96.10;;;;;;4804866;29;20054;-85
2021/05/25 17:21:52;;;;;;;1.13;0.40;;;8.80;96.20;;;;;;4807090;29;20062;-84
2021/05/25 17:24:22;;;;;;;0.98;0.40;;;8.90;96.30;;;;;;4807484;29;20066;-83
2021/05/25 17:26:50;;;;;;;1.17;0.50;;;8.70;96.10;;;;;;4790616;29;20082;-85
2021/05/25 17:29:20;;;;;;;0.75;0.35;;;8.80;96.10;;;;;;4803120;29;20073;-83
2021/05/25 17:31:50;;;;;;;5.47;1.48;;;8.80;96.10;;;;;;4801414;29;20059;-84
2021/05/25 17:34:17;;;;;;;2.35;0.70;;;8.90;96.30;;;;;;4805480;29;20078;-84
2021/05/25 17:36:45;;;;;;;4.25;1.30;;;8.80;96.20;;;;;;4799686;29;20207;-84
2021/05/25 17:39:14;;;;;;;3.20;0.77;;;8.70;96.10;;;;;;4812692;29;20063;-83
2021/05/25 17:41:41;;;;;;;5.22;0.82;;;8.70;96.10;;;;;;4809293;29;20051;-84
2021/05/25 17:44:09;;;;;;;3.55;1.15;;;8.80;96.10;;;;;;4800618;29;20288;-83
2021/05/25 17:46:37;;;;;;;2.22;1.00;;;8.80;96.20;;;;;;4800353;29;20330;-83
2021/05/25 17:49:12;;;;;;;3.25;0.70;;;8.90;96.20;;;;;;4817647;29;20330;-84
2021/05/25 17:51:39;;;;;;;2.03;0.73;;;8.90;96.30;;;;;;4799221;29;20055;-83
2021/05/25 17:54:07;;;;;;;2.45;0.77;;;8.90;96.30;;;;;;4817313;29;20070;-84
2021/05/25 17:56:36;;;;;;;4.88;1.60;;;9.00;96.30;;;;;;4801740;29;20055;-84
2021/05/25 17:59:09;;;;;;;2.67;1.00;;;8.90;96.30;;;;;;4801101;29;20051;-83
2021/05/25 18:01:36;;;;;;;6.65;1.35;;;9.00;96.40;;;;;;4814484;29;20062;-84
2021/05/25 18:04:07;;;;;;;2.55;0.73;;;9.10;96.50;;;;;;4799556;29;20051;-83
2021/05/25 18:06:44;;;;;;;3.28;1.08;;;9.10;96.50;;;;;;4792334;29;20078;-83
2021/05/25 18:09:12;;;;;;;6.60;1.30;;;9.00;96.40;;;;;;4794775;29;20056;-84
2021/05/25 18:11:40;;;;;;;5.00;0.65;;;9.10;96.40;;;;;;4798724;29;20066;-84
2021/05/25 18:14:07;;;;;;;1.08;0.40;;;9.10;96.30;;;;;;4808309;29;20062;-84
2021/05/25 18:16:34;;;;;;;6.03;0.80;;;9.10;96.20;;;;;;4792874;29;20203;-84
2021/05/25 18:19:01;;;;;;;2.28;0.70;;;9.10;96.10;;;;;;4802480;29;20364;-85
2021/05/25 18:21:28;;;;;;;1.65;0.50;;;9.10;95.90;;;;;;4797179;29;20125;-85
2021/05/25 18:23:56;;;;;;;2.67;0.60;;;9.10;95.80;;;;;;4800142;29;20062;-84
2021/05/25 18:26:24;;;;;;;1.92;0.50;;;9.10;95.80;;;;;;4800893;29;20055;-85
2021/05/25 18:28:52;;;;;;;2.28;0.63;;;9.20;95.80;;;;;;4801069;29;20059;-83
2021/05/25 18:31:25;;;;;;;2.65;0.70;;;9.10;95.60;;;;;;4801208;29;20087;-83
2021/05/25 18:33:57;;;;;;;2.20;0.60;;;9.20;95.60;;;;;;4801381;29;20347;-86
2021/05/25 18:36:36;;;;;;;1.75;0.85;;;9.20;95.60;;;;;;4814558;29;20051;-85
2021/05/25 18:41:58;;;;;;;3.35;1.00;;;9.20;95.50;;;;;;4797765;29;20047;-85
2021/05/25 18:44:30;;;;;;;2.40;0.70;;;9.20;95.50;;;;;;4806301;29;20313;-84
2021/05/25 18:46:57;;;;;;;1.58;0.60;;;9.20;95.50;;;;;;4797014;29;20123;-85
2021/05/25 18:49:25;;;;;;;1.85;0.80;;;9.20;95.30;;;;;;4807008;29;20060;-86
2021/05/25 18:51:54;;;;;;;1.67;0.60;;;9.20;94.90;;;;;;4807295;29;20058;-85
2021/05/25 18:54:21;;;;;;;2.25;0.80;;;9.30;94.90;;;;;;4793541;29;20063;-86
2021/05/25 18:56:51;;;;;;;1.85;0.75;;;9.20;94.80;;;;;;4793222;29;20059;-85
2021/05/25 18:59:30;;;;;;;5.68;1.02;;;9.20;94.80;;;;;;4805143;29;20054;-84
2021/05/25 19:02:01;;;;;;;1.35;0.60;;;9.20;94.70;;;;;;4787845;29;20223;-85
2021/05/25 19:04:31;;;;;;;4.32;0.60;;;9.30;94.90;;;;;;4811318;29;20058;-85
2021/05/25 19:06:59;;;;;;;4.30;1.23;;;9.20;94.90;;;;;;4801629;29;20242;-84
2021/05/25 19:09:28;;;;;;;2.20;0.70;;;9.30;94.70;;;;;;4792099;29;20103;-84
2021/05/25 19:12:00;;;;;;;6.13;1.23;;;9.20;94.40;;;;;;4801815;29;20039;-85
2021/05/25 19:14:28;;;;;;;5.45;0.50;;;9.20;93.80;;;;;;4798879;29;20594;-85
2021/05/25 19:17:00;;;;;;;6.25;0.57;;;9.20;94.20;;;;;;4817691;29;20042;-83
2021/05/25 19:19:31;;;;;;;3.17;0.55;;;9.20;93.90;;;;;;4804422;29;20054;-84
2021/05/25 19:22:02;;;;;;;2.60;0.70;;;9.20;93.40;;;;;;4800542;29;20108;-85
2021/05/25 19:24:34;;;;;;;2.33;0.63;;;9.20;93.70;;;;;;4809353;29;20055;-84
2021/05/25 19:27:01;;;;;;;3.72;0.70;;;9.20;93.60;;;;;;4802991;29;20112;-87
2021/05/25 19:29:30;;;;;;;3.95;1.08;;;9.20;93.90;;;;;;4795744;29;20091;-86
2021/05/25 19:31:58;;;;;;;1.27;0.45;;;9.20;94.00;;;;;;4797948;29;20411;-85
2021/05/25 19:34:29;;;;;;;5.47;0.63;;;9.20;94.00;;;;;;4805777;29;20051;-85
2021/05/25 19:36:56;;;;;;;2.53;0.95;;;9.20;93.80;;;;;;4810042;29;20059;-87
2021/05/25 19:39:24;;;;;;;2.80;0.70;;;9.20;93.50;;;;;;4798420;29;20066;-84
2021/05/25 19:41:53;;;;;;;;;;;9.20;93.60;;;;;;4810908;29;20062;-85
2021/05/25 19:44:21;;;;;;;2.83;0.57;;;9.20;93.70;;;;;;4805228;29;19996;-87
2021/05/25 19:46:49;;;;;;;1.85;0.50;;;9.20;93.50;;;;;;4805010;29;20051;-85
2021/05/25 19:49:17;;;;;;;1.55;0.75;;;9.20;93.60;;;;;;4781713;29;20063;-86
2021/05/25 19:51:44;;;;;;;1.88;0.73;;;9.30;94.10;;;;;;4810572;29;20052;-84
2021/05/25 19:54:11;;;;;;;3.50;0.70;;;9.30;94.20;;;;;;4798209;29;20055;-83
2021/05/25 19:56:38;;;;;;;2.63;0.80;;;9.30;94.20;;;;;;4794722;29;21617;-85
2021/05/25 19:59:07;;;;;;;2.20;0.65;;;9.40;94.30;;;;;;4803291;29;20131;-84
2021/05/25 20:01:36;;;;;;;1.70;0.80;;;9.40;94.00;;;;;;4795075;29;20055;-88
2021/05/25 20:04:07;;;;;;;1.10;0.60;;;9.40;94.20;;;;;;4801265;29;20035;-86
2021/05/25 20:06:36;;;;;;;2.63;0.40;;;9.40;94.30;;;;;;4819358;29;20082;-84
2021/05/25 20:09:04;;;;;;;2.22;0.45;;;9.30;94.10;;;;;;4804510;29;20293;-85
2021/05/25 20:11:33;;;;;;;2.63;0.60;;;9.40;94.00;;;;;;4799193;29;20349;-87
2021/05/25 20:14:00;;;;;;;1.38;0.50;;;9.40;93.30;;;;;;4805177;29;20361;-84
2021/05/25 20:16:32;;;;;;;1.50;0.68;;;9.40;93.40;;;;;;4806347;29;20043;-86
2021/05/25 20:19:01;;;;;;;1.25;0.40;;;9.50;93.40;;;;;;4803644;29;20245;-85
2021/05/25 20:21:28;;;;;;;1.38;0.47;;;9.50;93.00;;;;;;4814341;29;20074;-84
2021/05/25 20:23:56;;;;;;;0.95;0.40;;;9.60;92.30;;;;;;4805148;29;20238;-84
2021/05/25 20:26:23;;;;;;;0.40;0.40;;;9.60;92.50;;;;;;4791814;29;20121;-84
2021/05/25 20:28:50;;;;;;;0.98;0.50;;;9.50;93.10;;;;;;4806482;29;20092;-84
2021/05/25 20:31:17;;;;;;;1.83;0.70;;;9.50;93.40;;;;;;4807464;29;20281;-84
2021/05/25 20:37:35;;;;;;;1.80;0.93;;;9.60;93.70;;;;;;4804917;29;20051;-84
2021/05/25 20:39:20;;;;;;;3.05;0.60;;;9.70;92.60;;;;;;4807889;29;20078;-84
2021/05/25 20:41:48;;;;;;;2.33;0.75;;;9.60;93.20;;;;;;4816291;29;20070;-85
2021/05/25 20:44:16;;;;;;;1.13;0.60;;;9.70;92.70;;;;;;4815559;29;20050;-84
2021/05/25 20:46:43;;;;;;;2.38;0.70;;;9.60;91.20;;;;;;4816058;29;20082;-84
2021/05/25 20:49:10;;;;;;;5.53;1.00;;;9.60;91.80;;;;;;4820875;29;20067;-84
2021/05/25 20:51:38;;;;;;;4.80;1.00;;;9.50;92.20;;;;;;4800826;29;20354;-85
2021/05/25 20:54:06;;;;;;;2.30;0.85;;;9.50;92.30;;;;;;4808113;29;20101;-84
2021/05/25 20:56:34;;;;;;;5.70;1.65;;;9.40;91.70;;;;;;4813826;29;20055;-84
2021/05/25 20:59:08;;;;;;;4.25;0.77;;;9.30;92.20;;;;;;4805951;29;20134;-84
2021/05/25 21:01:43;;;;;;;1.95;0.90;;;9.30;92.80;;;;;;4802614;29;20046;-85
2021/05/25 21:04:10;;;;;;;3.77;0.93;;;9.20;92.80;;;;;;4795187;29;20146;-84
2021/05/25 21:06:37;;;;;;;2.03;0.50;;;9.20;92.40;;;;;;4797941;29;20066;-85
2021/05/25 21:09:12;;;;;;;2.05;0.93;;;9.20;92.30;;;;;;4781949;29;20338;-86
2021/05/25 21:11:45;;;;;;;1.70;0.73;;;9.20;92.20;;;;;;4793983;29;20058;-85
2021/05/25 21:14:17;;;;;;;1.52;0.60;;;9.20;92.60;;;;;;4773347;29;21603;-85
2021/05/25 21:16:44;;;;;;;3.40;1.00;;;9.10;92.70;;;;;;4776199;29;20126;-84
2021/05/25 21:19:10;;;;;;;3.60;1.17;;;9.10;92.70;;;;;;4787561;29;20115;-85
2021/05/25 21:21:37;;;;;;;4.38;1.30;;;9.10;93.00;;;;;;4797975;29;20051;-83
2021/05/25 21:24:06;;;;;;;2.35;0.57;;;9.00;93.20;;;;;;4798695;29;20114;-85
2021/05/25 21:26:33;;;;;;;2.70;0.82;;;9.00;93.30;;;;;;4799111;29;20101;-83
2021/05/25 21:29:02;;;;;;;3.00;0.70;;;8.90;93.60;;;;;;4778819;29;20055;-85
2021/05/25 21:31:29;;;;;;;3.42;0.80;;;8.90;93.80;;;;;;4801694;29;20050;-86